William P Hobby Airport
KHOU : now visible

Airfield :











YOU CAN JOIN US ON...

 
LOGIN :

Register | Disclaimer

   EN    FR    IT 

 









Legend :    VFR   Marginal VFR   IFR   Intensive IFR   Very Intensive IFR
Visi :
Ceiling :
>= 8 km
>= 3000ft
5 to 8 km
1000 to 3000 ft
1500m to 5 km
500 to 1000 ft
800 to 1500m
200 to 500 ft
< 800m
< 200 ft
Symbols :   Thunderstorms  Fog  Heavy snow  Heavy precipitations  Wind > 20 kt






- Airport Elevation : 46 ft
- IATA code : HOU


KHOU - William P Hobby

CURRENT METAR :
  • 151453Z 18014KT 10SM FEW028 23/19 A2984 RMK AO2 SLP109 T02280194 51012

EXPIRED METARs :
  • 151353Z 16008KT 9SM SCT027 21/19 A2983 RMK AO2 SLP106 T02060189
  • 151253Z 16009KT 8SM FEW005 SCT015 20/18 A2983 RMK AO2 SLP105 T02000183

TAF KHOU
Valid from the 15 at 15:00 until the 16 at 12:00 UTC


151507Z 1515/1612 18012KT P6SM SCT030
FM152100 17013G21KT P6SM SCT035
FM160100 17011KT P6SM VCSH BKN015



MET'MAP, your aeronautical weather chart ! - Copyright ORBIFLY December 2007 - Disclaimer

ORBIFLY MET'MAP TEAM :

Programming & Development : Alexandra Zaïnal
Concept & original design : Baudouin d'Aumeries
Assistance for programming : Marc-Olivier Méhu
Technical & hardware support : Manuel Goepfert

Contact : metmap@orbifly.com




SOURCES & CREDITS :

   NOAA       Earth
Advisory